sensor_id;sensor_type;location;lat;lon;timestamp;pressure;altitude;pressure_sealevel;temperature;humidity
47530;BME280;33272;51.922;7.730;2023-09-19T00:00:25;146679.94;;;16.84;100.00
47530;BME280;33272;51.922;7.730;2023-09-19T00:02:54;146687.56;;;16.87;100.00
47530;BME280;33272;51.922;7.730;2023-09-19T00:05:24;146685.00;;;16.86;100.00
47530;BME280;33272;51.922;7.730;2023-09-19T00:07:55;146668.44;;;16.79;100.00
47530;BME280;33272;51.922;7.730;2023-09-19T00:10:24;146665.91;;;16.78;100.00
47530;BME280;33272;51.922;7.730;2023-09-19T00:12:53;146654.38;;;16.74;100.00
47530;BME280;33272;51.922;7.730;2023-09-19T00:15:22;146644.19;;;16.69;100.00
47530;BME280;33272;51.922;7.730;2023-09-19T00:17:49;146626.38;;;16.62;100.00
47530;BME280;33272;51.922;7.730;2023-09-19T00:20:18;146627.63;;;16.63;100.00
47530;BME280;33272;51.922;7.730;2023-09-19T00:22:49;146620.00;;;16.60;100.00
47530;BME280;33272;51.922;7.730;2023-09-19T00:25:18;146608.56;;;16.55;100.00
47530;BME280;33272;51.922;7.730;2023-09-19T00:27:45;146613.63;;;16.57;100.00
47530;BME280;33272;51.922;7.730;2023-09-19T00:30:14;146589.41;;;16.48;100.00
47530;BME280;33272;51.922;7.730;2023-09-19T00:32:45;146598.34;;;16.51;100.00
47530;BME280;33272;51.922;7.730;2023-09-19T00:35:13;146585.63;;;16.46;100.00
47530;BME280;33272;51.922;7.730;2023-09-19T00:37:40;146603.44;;;16.53;100.00
47530;BME280;33272;51.922;7.730;2023-09-19T00:40:10;146609.81;;;16.56;100.00
47530;BME280;33272;51.922;7.730;2023-09-19T00:42:39;146626.38;;;16.62;100.00
47530;BME280;33272;51.922;7.730;2023-09-19T00:45:08;146630.16;;;16.64;100.00
47530;BME280;33272;51.922;7.730;2023-09-19T00:47:37;146645.47;;;16.70;100.00
47530;BME280;33272;51.922;7.730;2023-09-19T00:50:05;146649.31;;;16.72;100.00
47530;BME280;33272;51.922;7.730;2023-09-19T00:52:34;146673.53;;;16.81;100.00
47530;BME280;33272;51.922;7.730;2023-09-19T00:55:02;146682.47;;;16.85;100.00
47530;BME280;33272;51.922;7.730;2023-09-19T00:57:31;146683.72;;;16.85;100.00
47530;BME280;33272;51.922;7.730;2023-09-19T01:00:00;146669.69;;;16.80;100.00
47530;BME280;33272;51.922;7.730;2023-09-19T01:02:31;146691.38;;;16.88;100.00
47530;BME280;33272;51.922;7.730;2023-09-19T01:04:58;146679.94;;;16.84;100.00
47530;BME280;33272;51.922;7.730;2023-09-19T01:07:25;146679.94;;;16.84;100.00
47530;BME280;33272;51.922;7.730;2023-09-19T01:09:55;146690.09;;;16.88;100.00
47530;BME280;33272;51.922;7.730;2023-09-19T01:12:32;146687.56;;;16.87;100.00
47530;BME280;33272;51.922;7.730;2023-09-19T01:15:14;146683.72;;;16.85;100.00
47530;BME280;33272;51.922;7.730;2023-09-19T01:17:54;146665.91;;;16.78;100.00
47530;BME280;33272;51.922;7.730;2023-09-19T01:20:35;146656.94;;;16.75;100.00
47530;BME280;33272;51.922;7.730;2023-09-19T01:23:14;146665.91;;;16.78;100.00
47530;BME280;33272;51.922;7.730;2023-09-19T01:26:07;146663.38;;;16.77;100.00
47530;BME280;33272;51.922;7.730;2023-09-19T01:28:53;146655.69;;;16.74;100.00
47530;BME280;33272;51.922;7.730;2023-09-19T01:31:23;146649.31;;;16.72;100.00
47530;BME280;33272;51.922;7.730;2023-09-19T01:33:56;146664.63;;;16.78;100.00
47530;BME280;33272;51.922;7.730;2023-09-19T01:36:32;146642.91;;;16.69;100.00
47530;BME280;33272;51.922;7.730;2023-09-19T01:39:03;146651.84;;;16.73;100.00
47530;BME280;33272;51.922;7.730;2023-09-19T01:41:51;146635.28;;;16.66;100.00
47530;BME280;33272;51.922;7.730;2023-09-19T01:44:29;146645.47;;;16.70;100.00
47530;BME280;33272;51.922;7.730;2023-09-19T01:47:04;146641.66;;;16.68;100.00
47530;BME280;33272;51.922;7.730;2023-09-19T01:49:43;146641.66;;;16.68;100.00
47530;BME280;33272;51.922;7.730;2023-09-19T01:52:12;146627.63;;;16.63;100.00
47530;BME280;33272;51.922;7.730;2023-09-19T01:54:48;146623.84;;;16.61;100.00
47530;BME280;33272;51.922;7.730;2023-09-19T01:57:25;146644.19;;;16.69;100.00
47530;BME280;33272;51.922;7.730;2023-09-19T02:00:01;146653.09;;;16.73;100.00
47530;BME280;33272;51.922;7.730;2023-09-19T02:02:34;146645.47;;;16.70;100.00
47530;BME280;33272;51.922;7.730;2023-09-19T02:05:03;146650.56;;;16.72;100.00
47530;BME280;33272;51.922;7.730;2023-09-19T02:07:30;146659.53;;;16.76;100.00
47530;BME280;33272;51.922;7.730;2023-09-19T02:09:58;146639.06;;;16.67;100.00
47530;BME280;33272;51.922;7.730;2023-09-19T02:12:25;146642.91;;;16.69;100.00
47530;BME280;33272;51.922;7.730;2023-09-19T02:14:53;146631.44;;;16.64;100.00
47530;BME280;33272;51.922;7.730;2023-09-19T02:17:20;146622.53;;;16.61;100.00
47530;BME280;33272;51.922;7.730;2023-09-19T02:19:48;146613.63;;;16.57;100.00
47530;BME280;33272;51.922;7.730;2023-09-19T02:22:15;146599.59;;;16.52;100.00
47530;BME280;33272;51.922;7.730;2023-09-19T02:24:42;146594.53;;;16.50;100.00
47530;BME280;33272;51.922;7.730;2023-09-19T02:27:09;146581.78;;;16.44;100.00
47530;BME280;33272;51.922;7.730;2023-09-19T02:29:38;146572.88;;;16.41;100.00
47530;BME280;33272;51.922;7.730;2023-09-19T02:32:05;146572.88;;;16.41;100.00
47530;BME280;33272;51.922;7.730;2023-09-19T02:34:33;146574.13;;;16.41;100.00
47530;BME280;33272;51.922;7.730;2023-09-19T02:37:03;146574.13;;;16.41;100.00
47530;BME280;33272;51.922;7.730;2023-09-19T02:39:32;146551.22;;;16.32;100.00
47530;BME280;33272;51.922;7.730;2023-09-19T02:41:59;146552.47;;;16.33;100.00
47530;BME280;33272;51.922;7.730;2023-09-19T02:44:26;146537.19;;;16.27;100.00
47530;BME280;33272;51.922;7.730;2023-09-19T02:46:53;146525.75;;;16.22;100.00
47530;BME280;33272;51.922;7.730;2023-09-19T02:49:21;146532.13;;;16.25;100.00
47530;BME280;33272;51.922;7.730;2023-09-19T02:51:48;146532.13;;;16.25;100.00
47530;BME280;33272;51.922;7.730;2023-09-19T02:54:17;146528.28;;;16.23;100.00
47530;BME280;33272;51.922;7.730;2023-09-19T02:56:45;146520.66;;;16.20;100.00
47530;BME280;33272;51.922;7.730;2023-09-19T02:59:13;146491.41;;;16.08;100.00
47530;BME280;33272;51.922;7.730;2023-09-19T03:01:43;146471.00;;;16.00;100.00
47530;BME280;33272;51.922;7.730;2023-09-19T03:04:12;146468.47;;;15.99;100.00
47530;BME280;33272;51.922;7.730;2023-09-19T03:06:39;146457.00;;;15.94;100.00
47530;BME280;33272;51.922;7.730;2023-09-19T03:09:07;146463.38;;;15.97;100.00
47530;BME280;33272;51.922;7.730;2023-09-19T03:11:41;146465.91;;;15.98;100.00
47530;BME280;33272;51.922;7.730;2023-09-19T03:14:08;146472.28;;;16.01;100.00
47530;BME280;33272;51.922;7.730;2023-09-19T03:16:36;146459.59;;;15.95;100.00
47530;BME280;33272;51.922;7.730;2023-09-19T03:19:04;146439.19;;;15.87;100.00
47530;BME280;33272;51.922;7.730;2023-09-19T03:21:31;146430.28;;;15.84;100.00
47530;BME280;33272;51.922;7.730;2023-09-19T03:23:58;146403.53;;;15.73;100.00
47530;BME280;33272;51.922;7.730;2023-09-19T03:26:25;146388.31;;;15.67;100.00
47530;BME280;33272;51.922;7.730;2023-09-19T03:28:54;146384.41;;;15.65;100.00
47530;BME280;33272;51.922;7.730;2023-09-19T03:31:22;146378.03;;;15.63;100.00
47530;BME280;33272;51.922;7.730;2023-09-19T03:33:49;146361.50;;;15.56;100.00
47530;BME280;33272;51.922;7.730;2023-09-19T03:36:16;146337.31;;;15.46;100.00
47530;BME280;33272;51.922;7.730;2023-09-19T03:38:43;146328.44;;;15.43;100.00
47530;BME280;33272;51.922;7.730;2023-09-19T03:41:10;146322.06;;;15.40;100.00
47530;BME280;33272;51.922;7.730;2023-09-19T03:43:40;146303.00;;;15.33;100.00
47530;BME280;33272;51.922;7.730;2023-09-19T03:46:08;146301.72;;;15.32;100.00
47530;BME280;33272;51.922;7.730;2023-09-19T03:48:35;146295.34;;;15.29;100.00
47530;BME280;33272;51.922;7.730;2023-09-19T03:51:02;146285.13;;;15.25;100.00
47530;BME280;33272;51.922;7.730;2023-09-19T03:53:29;146277.50;;;15.22;100.00
47530;BME280;33272;51.922;7.730;2023-09-19T03:55:56;146267.34;;;15.18;100.00
47530;BME280;33272;51.922;7.730;2023-09-19T03:58:23;146258.44;;;15.15;100.00
47530;BME280;33272;51.922;7.730;2023-09-19T04:00:50;146260.97;;;15.16;100.00
47530;BME280;33272;51.922;7.730;2023-09-19T04:03:18;146248.28;;;15.11;100.00
47530;BME280;33272;51.922;7.730;2023-09-19T04:05:46;146243.19;;;15.09;100.00
47530;BME280;33272;51.922;7.730;2023-09-19T04:08:13;146236.81;;;15.06;100.00
47530;BME280;33272;51.922;7.730;2023-09-19T04:10:42;146224.13;;;15.01;100.00
47530;BME280;33272;51.922;7.730;2023-09-19T04:13:11;146229.16;;;15.03;100.00
47530;BME280;33272;51.922;7.730;2023-09-19T04:15:38;146230.44;;;15.03;100.00
47530;BME280;33272;51.922;7.730;2023-09-19T04:18:06;146225.38;;;15.01;100.00
47530;BME280;33272;51.922;7.730;2023-09-19T04:20:34;146211.38;;;14.96;100.00
47530;BME280;33272;51.922;7.730;2023-09-19T04:23:01;146205.00;;;14.93;100.00
47530;BME280;33272;51.922;7.730;2023-09-19T04:25:28;146210.13;;;14.95;100.00
47530;BME280;33272;51.922;7.730;2023-09-19T04:27:56;146213.91;;;14.97;100.00
47530;BME280;33272;51.922;7.730;2023-09-19T04:30:23;146199.94;;;14.91;100.00
47530;BME280;33272;51.922;7.730;2023-09-19T04:32:50;146187.22;;;14.86;100.00
47530;BME280;33272;51.922;7.730;2023-09-19T04:35:17;146187.22;;;14.86;100.00
47530;BME280;33272;51.922;7.730;2023-09-19T04:37:45;146187.22;;;14.86;100.00
47530;BME280;33272;51.922;7.730;2023-09-19T04:40:13;146171.94;;;14.80;100.00
47530;BME280;33272;51.922;7.730;2023-09-19T04:42:43;146165.59;;;14.77;100.00
47530;BME280;33272;51.922;7.730;2023-09-19T04:45:12;146154.16;;;14.73;100.00
47530;BME280;33272;51.922;7.730;2023-09-19T04:47:39;146143.94;;;14.69;100.00
47530;BME280;33272;51.922;7.730;2023-09-19T04:50:08;146138.91;;;14.67;100.00
47530;BME280;33272;51.922;7.730;2023-09-19T04:52:40;146118.53;;;14.58;100.00
47530;BME280;33272;51.922;7.730;2023-09-19T04:55:11;146113.47;;;14.56;100.00
47530;BME280;33272;51.922;7.730;2023-09-19T04:57:42;146110.91;;;14.55;100.00
47530;BME280;33272;51.922;7.730;2023-09-19T05:00:13;146108.38;;;14.54;100.00
47530;BME280;33272;51.922;7.730;2023-09-19T05:02:42;146104.53;;;14.53;100.00
47530;BME280;33272;51.922;7.730;2023-09-19T05:05:09;146086.69;;;14.46;100.00
47530;BME280;33272;51.922;7.730;2023-09-19T05:07:37;146085.44;;;14.45;100.00
47530;BME280;33272;51.922;7.730;2023-09-19T05:10:07;146077.81;;;14.42;100.00
47530;BME280;33272;51.922;7.730;2023-09-19T05:12:36;146067.66;;;14.38;100.00
47530;BME280;33272;51.922;7.730;2023-09-19T05:15:03;146060.00;;;14.35;100.00
47530;BME280;33272;51.922;7.730;2023-09-19T05:17:32;146058.75;;;14.34;100.00
47530;BME280;33272;51.922;7.730;2023-09-19T05:19:59;146054.91;;;14.33;100.00
47530;BME280;33272;51.922;7.730;2023-09-19T05:22:32;146049.81;;;14.31;100.00
47530;BME280;33272;51.922;7.730;2023-09-19T05:24:59;146051.13;;;14.31;100.00
47530;BME280;33272;51.922;7.730;2023-09-19T05:27:30;146047.28;;;14.30;100.00
47530;BME280;33272;51.922;7.730;2023-09-19T05:29:58;146056.19;;;14.33;100.00
47530;BME280;33272;51.922;7.730;2023-09-19T05:32:25;146047.28;;;14.30;100.00
47530;BME280;33272;51.922;7.730;2023-09-19T05:34:52;146049.81;;;14.31;100.00
47530;BME280;33272;51.922;7.730;2023-09-19T05:37:21;146056.19;;;14.33;100.00
47530;BME280;33272;51.922;7.730;2023-09-19T05:39:49;146061.28;;;14.35;100.00
47530;BME280;33272;51.922;7.730;2023-09-19T05:42:16;146070.16;;;14.39;100.00
47530;BME280;33272;51.922;7.730;2023-09-19T05:44:43;146075.28;;;14.41;100.00
47530;BME280;33272;51.922;7.730;2023-09-19T05:47:11;146093.06;;;14.48;100.00
47530;BME280;33272;51.922;7.730;2023-09-19T05:49:38;146122.38;;;14.60;100.00
47530;BME280;33272;51.922;7.730;2023-09-19T05:52:07;146141.44;;;14.68;100.00
47530;BME280;33272;51.922;7.730;2023-09-19T05:54:34;146150.31;;;14.71;100.00
47530;BME280;33272;51.922;7.730;2023-09-19T05:57:03;146150.31;;;14.71;100.00
47530;BME280;33272;51.922;7.730;2023-09-19T05:59:30;146141.44;;;14.68;100.00
47530;BME280;33272;51.922;7.730;2023-09-19T06:01:59;146151.59;;;14.72;100.00
47530;BME280;33272;51.922;7.730;2023-09-19T06:04:27;146170.69;;;14.79;100.00
47530;BME280;33272;51.922;7.730;2023-09-19T06:06:56;146191.00;;;14.88;100.00
47530;BME280;33272;51.922;7.730;2023-09-19T06:09:24;146212.63;;;14.96;100.00
47530;BME280;33272;51.922;7.730;2023-09-19T06:11:53;146240.66;;;15.07;100.00
47530;BME280;33272;51.922;7.730;2023-09-19T06:14:21;146255.91;;;15.14;100.00
47530;BME280;33272;51.922;7.730;2023-09-19T06:16:50;146280.09;;;15.23;100.00
47530;BME280;33272;51.922;7.730;2023-09-19T06:19:19;146288.97;;;15.27;100.00
47530;BME280;33272;51.922;7.730;2023-09-19T06:21:49;146301.72;;;15.32;100.00
47530;BME280;33272;51.922;7.730;2023-09-19T06:24:16;146299.16;;;15.31;100.00
47530;BME280;33272;51.922;7.730;2023-09-19T06:26:45;146316.94;;;15.38;100.00
47530;BME280;33272;51.922;7.730;2023-09-19T06:29:13;146319.53;;;15.39;100.00
47530;BME280;33272;51.922;7.730;2023-09-19T06:31:40;146316.94;;;15.38;100.00
47530;BME280;33272;51.922;7.730;2023-09-19T06:34:07;146346.22;;;15.50;100.00
47530;BME280;33272;51.922;7.730;2023-09-19T06:36:34;146342.44;;;15.48;100.00
47530;BME280;33272;51.922;7.730;2023-09-19T06:39:03;146344.97;;;15.49;100.00
47530;BME280;33272;51.922;7.730;2023-09-19T06:41:32;146364.03;;;15.57;100.00
47530;BME280;33272;51.922;7.730;2023-09-19T06:43:59;146379.31;;;15.63;100.00
47530;BME280;33272;51.922;7.730;2023-09-19T06:46:26;146380.63;;;15.64;100.00
47530;BME280;33272;51.922;7.730;2023-09-19T06:48:58;146385.69;;;15.66;100.00
47530;BME280;33272;51.922;7.730;2023-09-19T06:51:25;146397.22;;;15.70;100.00
47530;BME280;33272;51.922;7.730;2023-09-19T06:53:52;146392.09;;;15.68;100.00
47530;BME280;33272;51.922;7.730;2023-09-19T06:56:21;146381.88;;;15.64;100.00
47530;BME280;33272;51.922;7.730;2023-09-19T06:58:50;146370.41;;;15.60;100.00
47530;BME280;33272;51.922;7.730;2023-09-19T07:01:17;146367.88;;;15.59;100.00
47530;BME280;33272;51.922;7.730;2023-09-19T07:03:44;146381.88;;;15.64;100.00
47530;BME280;33272;51.922;7.730;2023-09-19T07:06:12;146394.63;;;15.69;100.00
47530;BME280;33272;51.922;7.730;2023-09-19T07:08:39;146411.16;;;15.76;100.00
47530;BME280;33272;51.922;7.730;2023-09-19T07:11:06;146409.91;;;15.75;100.00
47530;BME280;33272;51.922;7.730;2023-09-19T07:13:34;146422.66;;;15.81;100.00
47530;BME280;33272;51.922;7.730;2023-09-19T07:16:02;146436.66;;;15.86;100.00
47530;BME280;33272;51.922;7.730;2023-09-19T07:18:29;146454.47;;;15.93;100.00
47530;BME280;33272;51.922;7.730;2023-09-19T07:20:58;146463.38;;;15.97;100.00
47530;BME280;33272;51.922;7.730;2023-09-19T07:23:31;146478.66;;;16.03;100.00
47530;BME280;33272;51.922;7.730;2023-09-19T07:26:00;146495.19;;;16.10;100.00
47530;BME280;33272;51.922;7.730;2023-09-19T07:28:29;146514.31;;;16.17;100.00
47530;BME280;33272;51.922;7.730;2023-09-19T07:30:57;146510.47;;;16.16;100.00
47530;BME280;33272;51.922;7.730;2023-09-19T07:33:28;146556.31;;;16.34;100.00
47530;BME280;33272;51.922;7.730;2023-09-19T07:35:55;146566.50;;;16.38;100.00
47530;BME280;33272;51.922;7.730;2023-09-19T07:38:22;146588.16;;;16.47;100.00
47530;BME280;33272;51.922;7.730;2023-09-19T07:40:50;146614.88;;;16.58;100.00
47530;BME280;33272;51.922;7.730;2023-09-19T07:43:17;146618.72;;;16.59;100.00
47530;BME280;33272;51.922;7.730;2023-09-19T07:45:44;146649.31;;;16.72;100.00
47530;BME280;33272;51.922;7.730;2023-09-19T07:48:12;146664.63;;;16.78;100.00
47530;BME280;33272;51.922;7.730;2023-09-19T07:50:41;146678.63;;;16.83;100.00
47530;BME280;33272;51.922;7.730;2023-09-19T07:53:09;146674.81;;;16.82;100.00
47530;BME280;33272;51.922;7.730;2023-09-19T07:55:39;146686.25;;;16.86;100.00
47530;BME280;33272;51.922;7.730;2023-09-19T07:58:06;146700.28;;;16.92;100.00
47530;BME280;33272;51.922;7.730;2023-09-19T08:00:33;146709.19;;;16.96;100.00
47530;BME280;33272;51.922;7.730;2023-09-19T08:03:00;146742.34;;;17.09;100.00
47530;BME280;33272;51.922;7.730;2023-09-19T08:05:30;146765.28;;;17.18;100.00
47530;BME280;33272;51.922;7.730;2023-09-19T08:07:59;146735.97;;;17.06;100.00
47530;BME280;33272;51.922;7.730;2023-09-19T08:10:27;146747.41;;;17.11;100.00
47530;BME280;33272;51.922;7.730;2023-09-19T08:13:00;146778.00;;;17.23;100.00
47530;BME280;33272;51.922;7.730;2023-09-19T08:15:27;146808.59;;;17.35;100.00
47530;BME280;33272;51.922;7.730;2023-09-19T08:17:54;146788.19;;;17.27;100.00
47530;BME280;33272;51.922;7.730;2023-09-19T08:20:21;146795.84;;;17.30;100.00
47530;BME280;33272;51.922;7.730;2023-09-19T08:22:51;146812.44;;;17.37;100.00
47530;BME280;33272;51.922;7.730;2023-09-19T08:25:20;146822.63;;;17.41;100.00
47530;BME280;33272;51.922;7.730;2023-09-19T08:27:48;146817.50;;;17.39;100.00
47530;BME280;33272;51.922;7.730;2023-09-19T08:30:15;146832.81;;;17.45;100.00
47530;BME280;33272;51.922;7.730;2023-09-19T08:32:43;146848.09;;;17.51;100.00
47530;BME280;33272;51.922;7.730;2023-09-19T08:35:12;146862.13;;;17.57;100.00
47530;BME280;33272;51.922;7.730;2023-09-19T08:37:39;146853.22;;;17.53;100.00
47530;BME280;33272;51.922;7.730;2023-09-19T08:40:09;146879.97;;;17.64;100.00
47530;BME280;33272;51.922;7.730;2023-09-19T08:42:49;146867.19;;;17.59;100.00
47530;BME280;33272;51.922;7.730;2023-09-19T08:45:17;146909.28;;;17.76;100.00
47530;BME280;33272;51.922;7.730;2023-09-19T08:47:47;146946.31;;;17.91;100.00
47530;BME280;33272;51.922;7.730;2023-09-19T08:50:26;146910.56;;;17.76;100.00
47530;BME280;33272;51.922;7.730;2023-09-19T08:52:56;146897.78;;;17.71;100.00
47530;BME280;33272;51.922;7.730;2023-09-19T08:55:28;146908.03;;;17.75;100.00
47530;BME280;33272;51.922;7.730;2023-09-19T08:58:03;146941.22;;;17.89;100.00
47530;BME280;33272;51.922;7.730;2023-09-19T09:00:31;146951.41;;;17.93;100.00
47530;BME280;33272;51.922;7.730;2023-09-19T09:02:59;146970.53;;;18.00;100.00
47530;BME280;33272;51.922;7.730;2023-09-19T09:05:28;146960.31;;;17.96;100.00
47530;BME280;33272;51.922;7.730;2023-09-19T09:07:55;146965.44;;;17.98;100.00
47530;BME280;33272;51.922;7.730;2023-09-19T09:10:23;146960.31;;;17.96;100.00
47530;BME280;33272;51.922;7.730;2023-09-19T09:12:53;146948.88;;;17.92;98.82
47530;BME280;33272;51.922;7.730;2023-09-19T09:15:22;146971.81;;;18.01;100.00
47530;BME280;33272;51.922;7.730;2023-09-19T09:17:50;146974.34;;;18.02;99.58
47530;BME280;33272;51.922;7.730;2023-09-19T09:20:19;147003.69;;;18.14;99.40
47530;BME280;33272;51.922;7.730;2023-09-19T09:22:52;147011.34;;;18.17;98.68
47530;BME280;33272;51.922;7.730;2023-09-19T09:25:21;147040.69;;;18.28;99.21
47530;BME280;33272;51.922;7.730;2023-09-19T09:28:01;147033.03;;;18.25;97.82
47530;BME280;33272;51.922;7.730;2023-09-19T09:30:33;147040.69;;;18.28;97.03
47530;BME280;33272;51.922;7.730;2023-09-19T09:33:11;147073.84;;;18.42;96.82
47530;BME280;33272;51.922;7.730;2023-09-19T09:35:48;147090.41;;;18.48;96.24
47530;BME280;33272;51.922;7.730;2023-09-19T09:38:19;147101.88;;;18.53;95.23
47530;BME280;33272;51.922;7.730;2023-09-19T09:40:47;147103.13;;;18.53;96.47
47530;BME280;33272;51.922;7.730;2023-09-19T09:43:34;147101.88;;;18.53;94.13
47530;BME280;33272;51.922;7.730;2023-09-19T09:46:13;147158.03;;;18.75;95.44
47530;BME280;33272;51.922;7.730;2023-09-19T09:48:59;147149.06;;;18.72;94.43
47530;BME280;33272;51.922;7.730;2023-09-19T09:51:48;147124.84;;;18.62;94.04
47530;BME280;33272;51.922;7.730;2023-09-19T09:54:24;147168.28;;;18.80;95.81
47530;BME280;33272;51.922;7.730;2023-09-19T09:56:57;147182.31;;;18.85;94.32
47530;BME280;33272;51.922;7.730;2023-09-19T09:59:54;147154.22;;;18.74;93.87
47530;BME280;33272;51.922;7.730;2023-09-19T10:02:27;147238.47;;;19.08;94.90
47530;BME280;33272;51.922;7.730;2023-09-19T10:04:59;147243.53;;;19.10;94.89
47530;BME280;33272;51.922;7.730;2023-09-19T10:07:36;147212.91;;;18.97;94.82
47530;BME280;33272;51.922;7.730;2023-09-19T10:10:07;147242.25;;;19.09;92.32
47530;BME280;33272;51.922;7.730;2023-09-19T10:12:45;147258.84;;;19.16;92.76
47530;BME280;33272;51.922;7.730;2023-09-19T10:15:18;147258.84;;;19.16;93.37
47530;BME280;33272;51.922;7.730;2023-09-19T10:17:47;147297.13;;;19.31;93.98
47530;BME280;33272;51.922;7.730;2023-09-19T10:20:16;147306.06;;;19.35;92.90
47530;BME280;33272;51.922;7.730;2023-09-19T10:23:00;147269.09;;;19.20;93.65
47530;BME280;33272;51.922;7.730;2023-09-19T10:25:29;147302.25;;;19.33;93.10
47530;BME280;33272;51.922;7.730;2023-09-19T10:27:58;147302.25;;;19.33;92.50
47530;BME280;33272;51.922;7.730;2023-09-19T10:30:31;147302.25;;;19.33;92.08
47530;BME280;33272;51.922;7.730;2023-09-19T10:33:02;147354.56;;;19.54;91.73
47530;BME280;33272;51.922;7.730;2023-09-19T10:35:30;147353.28;;;19.54;90.95
47530;BME280;33272;51.922;7.730;2023-09-19T10:38:01;147382.72;;;19.65;90.80
47530;BME280;33272;51.922;7.730;2023-09-19T10:40:29;147369.88;;;19.60;89.96
47530;BME280;33272;51.922;7.730;2023-09-19T10:43:02;147363.53;;;19.58;87.97
47530;BME280;33272;51.922;7.730;2023-09-19T10:45:33;147349.47;;;19.52;88.19
47530;BME280;33272;51.922;7.730;2023-09-19T10:48:01;147396.78;;;19.71;88.69
47530;BME280;33272;51.922;7.730;2023-09-19T10:50:33;147409.50;;;19.76;89.59
47530;BME280;33272;51.922;7.730;2023-09-19T10:53:05;147414.63;;;19.78;88.36
47530;BME280;33272;51.922;7.730;2023-09-19T10:55:34;147392.91;;;19.70;87.38
47530;BME280;33272;51.922;7.730;2023-09-19T10:58:03;147414.63;;;19.78;88.42
47530;BME280;33272;51.922;7.730;2023-09-19T11:00:55;147447.81;;;19.91;87.61
47530;BME280;33272;51.922;7.730;2023-09-19T11:03:23;147426.09;;;19.83;85.85
47530;BME280;33272;51.922;7.730;2023-09-19T11:06:07;147468.25;;;20.00;82.70
47530;BME280;33272;51.922;7.730;2023-09-19T11:08:59;147484.84;;;20.06;80.56
47530;BME280;33272;51.922;7.730;2023-09-19T11:11:50;147533.38;;;20.26;82.01
47530;BME280;33272;51.922;7.730;2023-09-19T11:14:41;147438.88;;;19.88;79.36
47530;BME280;33272;51.922;7.730;2023-09-19T11:17:42;147436.34;;;19.87;80.26
47530;BME280;33272;51.922;7.730;2023-09-19T11:20:24;147450.41;;;19.93;77.48
47530;BME280;33272;51.922;7.730;2023-09-19T11:23:23;147418.47;;;19.80;78.27
47530;BME280;33272;51.922;7.730;2023-09-19T11:25:54;147445.28;;;19.90;82.44
47530;BME280;33272;51.922;7.730;2023-09-19T11:28:34;147463.13;;;19.98;81.21
47530;BME280;33272;51.922;7.730;2023-09-19T11:31:50;147502.72;;;20.13;78.56
47530;BME280;33272;51.922;7.730;2023-09-19T11:34:46;147515.50;;;20.19;78.04
47530;BME280;33272;51.922;7.730;2023-09-19T11:38:00;147538.50;;;20.28;78.04
47530;BME280;33272;51.922;7.730;2023-09-19T11:40:47;147557.66;;;20.35;80.17
47530;BME280;33272;51.922;7.730;2023-09-19T11:43:32;147565.31;;;20.38;79.19
47530;BME280;33272;51.922;7.730;2023-09-19T11:46:07;147538.50;;;20.28;79.11
47530;BME280;33272;51.922;7.730;2023-09-19T11:48:41;147505.31;;;20.14;77.24
47530;BME280;33272;51.922;7.730;2023-09-19T11:51:16;147578.09;;;20.44;78.12
47530;BME280;33272;51.922;7.730;2023-09-19T11:53:50;147653.50;;;20.74;79.20
47530;BME280;33272;51.922;7.730;2023-09-19T11:56:19;147702.09;;;20.93;77.32
47530;BME280;33272;51.922;7.730;2023-09-19T11:58:50;147737.84;;;21.08;78.39
47530;BME280;33272;51.922;7.730;2023-09-19T12:01:24;147725.03;;;21.02;75.27
47530;BME280;33272;51.922;7.730;2023-09-19T12:03:55;147636.88;;;20.67;72.57
47530;BME280;33272;51.922;7.730;2023-09-19T12:06:25;147712.28;;;20.97;74.79
47530;BME280;33272;51.922;7.730;2023-09-19T12:08:53;147645.81;;;20.71;75.36
47530;BME280;33272;51.922;7.730;2023-09-19T12:11:22;147644.56;;;20.70;77.12
47530;BME280;33272;51.922;7.730;2023-09-19T12:13:50;147666.28;;;20.79;77.17
47530;BME280;33272;51.922;7.730;2023-09-19T12:16:20;147612.63;;;20.57;72.91
47530;BME280;33272;51.922;7.730;2023-09-19T12:18:51;147681.63;;;20.85;76.88
47530;BME280;33272;51.922;7.730;2023-09-19T12:21:28;147728.91;;;21.04;76.08
47530;BME280;33272;51.922;7.730;2023-09-19T12:24:05;147703.34;;;20.94;71.85
47530;BME280;33272;51.922;7.730;2023-09-19T12:26:40;147719.97;;;21.00;73.28
47530;BME280;33272;51.922;7.730;2023-09-19T12:29:15;147665.03;;;20.78;72.89
47530;BME280;33272;51.922;7.730;2023-09-19T12:31:51;147681.63;;;20.85;75.18
47530;BME280;33272;51.922;7.730;2023-09-19T12:34:24;147667.56;;;20.79;74.98
47530;BME280;33272;51.922;7.730;2023-09-19T12:37:09;147717.38;;;20.99;75.34
47530;BME280;33272;51.922;7.730;2023-09-19T12:39:42;147735.31;;;21.06;74.17
47530;BME280;33272;51.922;7.730;2023-09-19T12:42:11;147803.00;;;21.34;75.92
47530;BME280;33272;51.922;7.730;2023-09-19T12:44:42;147786.41;;;21.27;75.30
47530;BME280;33272;51.922;7.730;2023-09-19T12:47:11;147817.13;;;21.39;75.18
47530;BME280;33272;51.922;7.730;2023-09-19T12:50:10;147759.56;;;21.16;72.83
47530;BME280;33272;51.922;7.730;2023-09-19T12:52:46;147768.53;;;21.20;73.32
47530;BME280;33272;51.922;7.730;2023-09-19T12:55:22;147736.56;;;21.07;71.76
47530;BME280;33272;51.922;7.730;2023-09-19T12:58:11;147744.25;;;21.10;73.35
47530;BME280;33272;51.922;7.730;2023-09-19T13:00:42;147745.50;;;21.11;75.10
47530;BME280;33272;51.922;7.730;2023-09-19T13:03:15;147767.25;;;21.19;72.68